Time;durP1;ratioP1;P1;durP2;ratioP2;P2;SDS_P1;SDS_P2;PMS_P1;PMS_P2;Temp;Humidity;BMP_temperature;BMP_pressure;BME280_temperature;BME280_humidity;BME280_pressure;Samples;Min_cycle;Max_cycle;Signal;HPM_P1;HPM_P2
2022/11/06 00:00:15;;;;;;;11.65;7.20;;;10.10;99.90;;;;;;5091339;28;20043;-65
2022/11/06 00:02:41;;;;;;;10.43;6.82;;;10.00;99.90;;;;;;5091416;28;20126;-66
2022/11/06 00:07:51;;;;;;;12.40;6.82;;;10.00;99.90;;;;;;5091422;28;20036;-65
2022/11/06 00:10:17;;;;;;;10.50;7.15;;;10.00;99.90;;;;;;5091179;28;20036;-65
2022/11/06 00:12:43;;;;;;;10.65;7.15;;;10.00;99.90;;;;;;5091873;28;20634;-65
2022/11/06 00:15:09;;;;;;;11.48;7.25;;;10.10;99.90;;;;;;5091692;28;20071;-65
2022/11/06 00:17:35;;;;;;;10.25;7.05;;;10.00;99.90;;;;;;5090766;28;20437;-65
2022/11/06 00:20:01;;;;;;;10.55;7.30;;;10.00;99.90;;;;;;5091434;28;20107;-65
2022/11/06 00:22:26;;;;;;;13.43;7.32;;;10.00;99.90;;;;;;5090350;28;20776;-65
2022/11/06 00:24:52;;;;;;;10.02;6.93;;;10.00;99.90;;;;;;5090950;28;20040;-67
2022/11/06 00:27:18;;;;;;;11.00;6.57;;;9.90;99.90;;;;;;5090970;28;20117;-66
2022/11/06 00:29:44;;;;;;;14.23;7.28;;;10.00;99.90;;;;;;5091480;28;20043;-65
2022/11/06 00:32:09;;;;;;;12.93;7.78;;;10.00;99.90;;;;;;5090652;28;20024;-65
2022/11/06 00:34:35;;;;;;;12.82;6.88;;;10.00;99.90;;;;;;5090944;28;20035;-66
2022/11/06 00:37:00;;;;;;;10.57;7.13;;;10.00;99.90;;;;;;5091168;28;20075;-65
2022/11/06 00:39:26;;;;;;;11.18;6.75;;;10.00;99.90;;;;;;5090818;28;20040;-65
2022/11/06 00:41:51;;;;;;;11.88;7.28;;;10.00;99.90;;;;;;5090615;28;20036;-66
2022/11/06 00:44:17;;;;;;;11.55;5.95;;;9.90;99.90;;;;;;5091499;28;20123;-66
2022/11/06 00:46:43;;;;;;;9.93;6.55;;;10.00;99.90;;;;;;5090730;28;20461;-66
2022/11/06 00:49:08;;;;;;;11.73;6.75;;;10.00;99.90;;;;;;5090807;28;20046;-66
2022/11/06 00:51:38;;;;;;;11.68;7.05;;;10.00;99.90;;;;;;5089903;28;20080;-65
2022/11/06 00:54:06;;;;;;;12.95;7.05;;;10.10;99.90;;;;;;5090672;28;20039;-65
2022/11/06 00:56:32;;;;;;;9.73;6.63;;;10.00;99.90;;;;;;5090535;28;20051;-66
2022/11/06 00:58:59;;;;;;;12.85;6.90;;;10.00;99.90;;;;;;5090300;28;20071;-67
2022/11/06 01:01:37;;;;;;;10.73;6.78;;;10.00;99.90;;;;;;5089363;28;20530;-65
2022/11/06 01:04:09;;;;;;;13.25;7.97;;;9.90;99.90;;;;;;5076655;28;20334;-65
2022/11/06 01:06:38;;;;;;;12.02;7.72;;;9.80;99.90;;;;;;5090236;28;20075;-65
2022/11/06 01:09:05;;;;;;;15.65;7.15;;;9.90;99.90;;;;;;5090554;28;20032;-65
2022/11/06 01:11:34;;;;;;;9.80;6.50;;;9.80;99.90;;;;;;5090310;28;20036;-66
2022/11/06 01:14:02;;;;;;;10.77;6.90;;;9.80;99.90;;;;;;5090820;28;20082;-65
2022/11/06 01:16:28;;;;;;;9.52;6.70;;;9.80;99.90;;;;;;5090663;28;20138;-65
2022/11/06 01:18:56;;;;;;;11.20;7.28;;;9.80;99.90;;;;;;5089933;28;20081;-65
2022/11/06 01:21:30;;;;;;;14.15;7.32;;;9.80;99.90;;;;;;5089499;28;20046;-66
2022/11/06 01:24:09;;;;;;;10.73;6.85;;;9.80;99.90;;;;;;5085801;28;20052;-65
2022/11/06 01:26:36;;;;;;;11.70;7.28;;;9.80;99.90;;;;;;5090503;28;20102;-65
2022/11/06 01:29:02;;;;;;;11.27;7.72;;;9.70;99.90;;;;;;5090794;28;20044;-65
2022/11/06 01:31:30;;;;;;;11.35;7.40;;;9.70;99.90;;;;;;5089694;28;20262;-66
2022/11/06 01:33:57;;;;;;;12.65;7.63;;;9.70;99.90;;;;;;5089859;28;20048;-65
2022/11/06 01:36:24;;;;;;;13.73;7.78;;;9.70;99.90;;;;;;5089988;28;20040;-65
2022/11/06 01:38:51;;;;;;;11.38;7.15;;;9.70;99.90;;;;;;5090011;28;20047;-66
2022/11/06 01:41:21;;;;;;;11.38;7.63;;;9.70;99.90;;;;;;5089649;28;20032;-65
2022/11/06 01:43:55;;;;;;;12.00;7.68;;;9.70;99.90;;;;;;5088562;28;20388;-65
2022/11/06 01:46:25;;;;;;;15.05;8.00;;;9.70;99.90;;;;;;5089883;28;20075;-64
2022/11/06 01:48:55;;;;;;;14.70;7.53;;;9.70;99.90;;;;;;5089995;28;20036;-64
2022/11/06 01:51:23;;;;;;;11.80;7.93;;;9.60;99.90;;;;;;5089736;28;20066;-64
2022/11/06 01:53:50;;;;;;;12.60;8.23;;;9.60;99.90;;;;;;5089390;28;20507;-64
2022/11/06 01:56:16;;;;;;;14.38;8.13;;;9.60;99.90;;;;;;5089522;28;20050;-64
2022/11/06 01:58:44;;;;;;;14.63;8.32;;;9.60;99.90;;;;;;5089208;28;20114;-65
2022/11/06 02:01:10;;;;;;;13.40;8.13;;;9.60;99.90;;;;;;5088672;28;20453;-65
2022/11/06 02:03:38;;;;;;;11.20;8.07;;;9.60;99.90;;;;;;5089126;28;20141;-65
2022/11/06 02:06:05;;;;;;;14.68;8.38;;;9.60;99.90;;;;;;5089344;28;20047;-65
2022/11/06 02:08:31;;;;;;;11.68;8.10;;;9.60;99.90;;;;;;5089290;28;20044;-65
2022/11/06 02:10:57;;;;;;;13.68;8.13;;;9.60;99.90;;;;;;5089006;28;20513;-64
2022/11/06 02:13:48;;;;;;;14.15;7.85;;;9.60;99.90;;;;;;5089036;28;20040;-64
2022/11/06 02:16:40;;;;;;;13.60;7.90;;;9.50;99.90;;;;;;5088088;28;20114;-65
2022/11/06 02:19:11;;;;;;;11.93;7.60;;;9.50;99.90;;;;;;5089024;28;20239;-65
2022/11/06 02:21:39;;;;;;;11.43;8.20;;;9.50;99.90;;;;;;5088558;28;20104;-65
2022/11/06 02:24:36;;;;;;;13.52;8.00;;;9.50;99.90;;;;;;5089026;28;20032;-65
2022/11/06 02:27:11;;;;;;;12.13;8.00;;;9.50;99.90;;;;;;5089241;28;20076;-65
2022/11/06 02:30:01;;;;;;;13.13;7.75;;;9.50;99.90;;;;;;5075585;28;20047;-65
2022/11/06 02:32:33;;;;;;;12.98;7.68;;;9.50;99.90;;;;;;5089274;28;20497;-64
2022/11/06 02:35:04;;;;;;;12.68;7.55;;;9.60;99.90;;;;;;5089489;28;20040;-64
2022/11/06 02:37:35;;;;;;;13.95;6.93;;;9.50;99.90;;;;;;5089443;28;20154;-66
2022/11/06 02:40:04;;;;;;;14.00;7.10;;;9.60;99.90;;;;;;5089285;28;20046;-64
2022/11/06 02:42:35;;;;;;;14.88;7.55;;;9.60;99.90;;;;;;5089036;28;20058;-65
2022/11/06 02:45:02;;;;;;;10.32;6.60;;;9.60;99.90;;;;;;5089127;28;20107;-65
2022/11/06 02:47:31;;;;;;;13.50;7.90;;;9.60;99.90;;;;;;5089429;28;20051;-64
2022/11/06 02:50:05;;;;;;;14.50;7.53;;;9.60;99.90;;;;;;5089572;28;20040;-64
2022/11/06 02:52:33;;;;;;;;;;;9.60;99.90;;;;;;5090109;28;20039;-63
2022/11/06 02:55:17;;;;;;;12.63;7.40;;;9.60;99.90;;;;;;5089895;28;19945;-64
2022/11/06 02:57:46;;;;;;;12.40;6.70;;;9.60;99.90;;;;;;5089659;28;20148;-64
2022/11/06 03:00:14;;;;;;;12.48;6.88;;;9.60;99.90;;;;;;5088793;28;20048;-64
2022/11/06 03:03:07;;;;;;;13.25;6.80;;;9.60;99.90;;;;;;5089110;28;20480;-65
2022/11/06 03:06:00;;;;;;;11.48;6.20;;;9.60;99.90;;;;;;5089301;28;20044;-63
2022/11/06 03:08:50;;;;;;;11.52;6.75;;;9.70;99.90;;;;;;5085026;28;20110;-63
2022/11/06 03:11:18;;;;;;;9.90;6.65;;;9.60;99.90;;;;;;5091080;28;20028;-63
2022/11/06 03:14:02;;;;;;;16.73;7.88;;;9.60;99.90;;;;;;5092634;28;20051;-64
2022/11/06 03:16:35;;;;;;;13.25;6.72;;;9.60;99.90;;;;;;5093133;28;20127;-64
2022/11/06 03:19:22;;;;;;;12.13;6.80;;;9.60;99.90;;;;;;5078156;28;20060;-64
2022/11/06 03:21:59;;;;;;;12.43;6.35;;;9.60;99.90;;;;;;5091798;28;20090;-63
2022/11/06 03:25:00;;;;;;;13.13;7.20;;;9.50;99.90;;;;;;5092537;28;20304;-63
2022/11/06 03:27:49;;;;;;;13.60;7.10;;;9.60;99.90;;;;;;5092876;28;20066;-64
2022/11/06 03:30:14;;;;;;;12.77;7.57;;;9.50;99.90;;;;;;5092741;28;20151;-63
2022/11/06 03:32:54;;;;;;;15.10;7.00;;;9.50;99.90;;;;;;5085079;28;20161;-64
2022/11/06 03:35:26;;;;;;;12.57;7.18;;;9.50;99.90;;;;;;5090934;28;20445;-64
2022/11/06 03:38:06;;;;;;;15.43;7.70;;;9.50;99.90;;;;;;5092002;28;20040;-64
2022/11/06 03:40:36;;;;;;;12.43;6.93;;;9.50;99.90;;;;;;5092696;28;20032;-63
2022/11/06 03:43:04;;;;;;;12.57;6.55;;;9.50;99.90;;;;;;5092504;28;20161;-64
2022/11/06 03:45:32;;;;;;;14.52;6.75;;;9.50;99.90;;;;;;5092831;28;20028;-64
2022/11/06 03:48:08;;;;;;;9.35;6.22;;;9.40;99.90;;;;;;5092747;28;20048;-63
2022/11/06 03:50:45;;;;;;;12.85;6.82;;;9.50;99.90;;;;;;5078236;28;20036;-63
2022/11/06 03:53:22;;;;;;;15.27;6.90;;;9.40;99.90;;;;;;5091927;28;20387;-63
2022/11/06 03:55:58;;;;;;;10.95;6.55;;;9.40;99.90;;;;;;5092380;28;20051;-64
2022/11/06 03:58:28;;;;;;;11.07;5.88;;;9.50;99.90;;;;;;5091879;28;20647;-64
2022/11/06 04:00:56;;;;;;;11.88;6.50;;;9.40;99.90;;;;;;5091422;28;20179;-64
2022/11/06 04:03:30;;;;;;;15.23;7.18;;;9.40;99.90;;;;;;5091844;28;20050;-64
2022/11/06 04:06:09;;;;;;;11.32;6.25;;;9.40;99.90;;;;;;5092169;28;20051;-63
2022/11/06 04:14:09;;;;;;;14.40;6.28;;;9.40;99.90;;;;;;5090771;28;20621;-65
2022/11/06 04:16:40;;;;;;;15.07;6.43;;;9.40;99.90;;;;;;5091857;28;20358;-64
2022/11/06 04:19:15;;;;;;;13.45;6.65;;;9.40;99.90;;;;;;5092032;28;20035;-66
2022/11/06 04:21:58;;;;;;;;;;;9.40;99.90;;;;;;5091242;28;20115;-64
2022/11/06 04:27:51;;;;;;;14.73;6.88;;;9.30;99.90;;;;;;5091214;28;20051;-64
2022/11/06 04:30:17;;;;;;;11.57;7.15;;;9.40;99.90;;;;;;5090661;28;20054;-64
2022/11/06 04:33:05;;;;;;;13.48;6.75;;;9.30;99.90;;;;;;5090767;28;20032;-64
2022/11/06 04:35:43;;;;;;;12.07;6.88;;;9.30;99.90;;;;;;5091077;28;20044;-64
2022/11/06 04:38:34;;;;;;;14.10;6.63;;;9.30;99.90;;;;;;5091329;28;20406;-64
2022/11/06 04:41:08;;;;;;;11.50;5.97;;;9.30;99.90;;;;;;5091272;28;20040;-65
2022/11/06 04:44:00;;;;;;;15.10;6.78;;;9.30;99.90;;;;;;5090598;28;20325;-64
2022/11/06 04:46:31;;;;;;;12.43;6.53;;;9.30;99.90;;;;;;5090898;28;20044;-64
2022/11/06 04:48:57;;;;;;;11.43;6.35;;;9.30;99.90;;;;;;5091480;28;20140;-65
2022/11/06 04:51:30;;;;;;;12.52;6.53;;;9.30;99.90;;;;;;5090710;28;20113;-64
2022/11/06 04:53:56;;;;;;;11.43;6.32;;;9.30;99.90;;;;;;5090732;28;20325;-64
2022/11/06 04:56:29;;;;;;;11.32;6.18;;;9.30;99.90;;;;;;5077915;28;20052;-65
2022/11/06 04:58:55;;;;;;;10.85;5.30;;;9.30;99.90;;;;;;5090857;28;20032;-64
2022/11/06 05:01:20;;;;;;;12.80;5.88;;;9.40;99.90;;;;;;5089342;28;20109;-65
2022/11/06 05:03:46;;;;;;;11.57;5.97;;;9.40;99.90;;;;;;5090907;28;20353;-64
2022/11/06 05:06:11;;;;;;;12.18;5.72;;;9.40;99.90;;;;;;5090884;28;20427;-64
2022/11/06 05:08:38;;;;;;;10.90;5.05;;;9.40;99.90;;;;;;5088619;28;20052;-64
2022/11/06 05:11:04;;;;;;;11.75;5.00;;;9.40;99.90;;;;;;5090165;28;20126;-65
2022/11/06 05:13:29;;;;;;;11.45;5.00;;;9.40;99.90;;;;;;5090208;28;20520;-65
2022/11/06 05:15:56;;;;;;;11.70;5.28;;;9.40;99.90;;;;;;5089026;28;20086;-64
2022/11/06 05:18:23;;;;;;;10.40;4.60;;;9.40;99.90;;;;;;5089426;28;20055;-65
2022/11/06 05:20:49;;;;;;;9.15;4.40;;;9.40;99.90;;;;;;5090596;28;20168;-66
2022/11/06 05:23:34;;;;;;;10.77;4.90;;;9.40;99.90;;;;;;5089148;28;20063;-65
2022/11/06 05:25:59;;;;;;;12.52;4.95;;;9.40;99.90;;;;;;5090615;28;20063;-65
2022/11/06 05:28:25;;;;;;;9.77;4.57;;;9.40;99.90;;;;;;5079832;28;20036;-65
2022/11/06 05:30:50;;;;;;;10.13;4.43;;;9.50;99.90;;;;;;5085461;28;20035;-65
2022/11/06 05:33:16;;;;;;;9.13;4.13;;;9.50;99.90;;;;;;5089384;28;20161;-65
2022/11/06 05:35:41;;;;;;;11.82;4.47;;;9.50;99.90;;;;;;5089826;28;20044;-65
2022/11/06 05:38:07;;;;;;;10.90;4.35;;;9.50;99.90;;;;;;5089781;28;20040;-65
2022/11/06 05:40:33;;;;;;;12.55;4.82;;;9.50;99.90;;;;;;5089168;28;20039;-65
2022/11/06 05:42:58;;;;;;;9.20;4.10;;;9.50;99.90;;;;;;5089411;28;20048;-65
2022/11/06 05:45:24;;;;;;;10.57;4.03;;;9.60;99.90;;;;;;5088241;28;20051;-66
2022/11/06 05:47:49;;;;;;;11.85;3.97;;;9.50;99.90;;;;;;5089863;28;20043;-66
2022/11/06 05:50:15;;;;;;;11.25;4.03;;;9.60;99.90;;;;;;5089472;28;20043;-65
2022/11/06 05:52:41;;;;;;;12.93;4.45;;;9.60;99.90;;;;;;5070917;28;20040;-65
2022/11/06 05:55:07;;;;;;;11.75;4.05;;;9.60;99.90;;;;;;5090072;28;20046;-65
2022/11/06 05:57:33;;;;;;;13.75;4.65;;;9.60;99.90;;;;;;5089942;28;20356;-65
2022/11/06 05:59:58;;;;;;;8.77;3.70;;;9.60;99.90;;;;;;5087987;28;20233;-67
2022/11/06 06:02:24;;;;;;;8.25;3.63;;;9.60;99.90;;;;;;5088528;28;20044;-65
2022/11/06 06:04:50;;;;;;;10.48;3.90;;;9.60;99.90;;;;;;5090044;28;20051;-65
2022/11/06 06:07:15;;;;;;;8.40;3.83;;;9.70;99.90;;;;;;5088565;28;20071;-65
2022/11/06 06:09:41;;;;;;;9.20;3.58;;;9.70;99.90;;;;;;5089557;28;20070;-65
2022/11/06 06:12:09;;;;;;;9.55;4.28;;;9.70;99.90;;;;;;5089672;28;20024;-65
2022/11/06 06:14:35;;;;;;;9.02;3.60;;;9.70;99.90;;;;;;5080063;28;20541;-66
2022/11/06 06:17:00;;;;;;;14.27;4.13;;;9.70;99.90;;;;;;5083328;28;20104;-65
2022/11/06 06:19:26;;;;;;;9.63;4.03;;;9.70;99.90;;;;;;5090023;28;20040;-65
2022/11/06 06:21:51;;;;;;;11.30;4.07;;;9.70;99.90;;;;;;5089525;28;20093;-65
2022/11/06 06:24:17;;;;;;;8.98;3.67;;;9.70;99.90;;;;;;5089547;28;20481;-66
2022/11/06 06:26:43;;;;;;;11.38;3.83;;;9.70;99.90;;;;;;5089794;28;20408;-65
2022/11/06 06:29:08;;;;;;;10.75;3.85;;;9.70;99.90;;;;;;5089195;28;20365;-65
2022/11/06 06:31:34;;;;;;;9.98;3.58;;;9.70;99.90;;;;;;5088416;28;20078;-65
2022/11/06 06:33:59;;;;;;;8.77;3.35;;;9.80;99.90;;;;;;5088910;28;20047;-66
2022/11/06 06:36:25;;;;;;;10.88;3.53;;;9.80;99.90;;;;;;5089057;28;20101;-66
2022/11/06 06:38:50;;;;;;;9.45;3.58;;;9.80;99.90;;;;;;5087260;28;20040;-65
2022/11/06 06:41:16;;;;;;;9.55;3.47;;;9.80;99.90;;;;;;5087120;28;20058;-65
2022/11/06 06:43:41;;;;;;;10.48;3.78;;;9.80;99.90;;;;;;5088871;28;20040;-65
2022/11/06 06:46:07;;;;;;;9.50;3.60;;;9.80;99.90;;;;;;5092562;28;20488;-65
2022/11/06 06:48:33;;;;;;;9.32;3.15;;;9.80;99.90;;;;;;5093016;28;20441;-65
2022/11/06 06:51:00;;;;;;;8.73;3.58;;;9.80;99.90;;;;;;5092769;28;20032;-66
2022/11/06 06:53:26;;;;;;;8.13;3.60;;;9.80;99.90;;;;;;5093051;28;20170;-65
2022/11/06 06:55:51;;;;;;;9.32;3.30;;;9.80;99.90;;;;;;5093515;28;20035;-65
2022/11/06 06:58:17;;;;;;;8.65;3.30;;;9.90;99.90;;;;;;5091892;28;20043;-65
2022/11/06 07:00:43;;;;;;;11.98;3.67;;;9.90;99.90;;;;;;5092054;28;20063;-65
2022/11/06 07:03:09;;;;;;;11.55;3.60;;;9.90;99.90;;;;;;5092605;28;20469;-65
2022/11/06 07:05:35;;;;;;;10.15;3.58;;;9.90;99.90;;;;;;5092475;28;20097;-66
2022/11/06 07:08:01;;;;;;;10.45;3.53;;;9.90;99.90;;;;;;5092971;28;20028;-66
2022/11/06 07:10:29;;;;;;;8.90;3.25;;;9.90;99.90;;;;;;5091961;28;20840;-65
2022/11/06 07:12:54;;;;;;;11.00;3.40;;;9.90;99.90;;;;;;5093072;28;20047;-65
2022/11/06 07:15:20;;;;;;;7.97;3.33;;;9.90;99.90;;;;;;5092340;28;20036;-66
2022/11/06 07:17:45;;;;;;;8.55;2.90;;;10.00;99.90;;;;;;5092651;28;20052;-65
2022/11/06 07:20:11;;;;;;;8.45;3.50;;;9.90;99.90;;;;;;5093010;28;20039;-65
2022/11/06 07:22:36;;;;;;;8.27;3.25;;;10.00;99.90;;;;;;5092566;28;20034;-65
2022/11/06 07:25:03;;;;;;;7.78;3.20;;;10.00;99.90;;;;;;5092121;28;20036;-67
2022/11/06 07:27:28;;;;;;;9.27;3.05;;;10.00;99.90;;;;;;5093142;28;20036;-65
2022/11/06 07:29:54;;;;;;;8.05;3.25;;;10.00;99.90;;;;;;5092792;28;20238;-65
2022/11/06 07:32:19;;;;;;;7.63;3.30;;;10.00;99.90;;;;;;5092649;28;20032;-66
2022/11/06 07:34:45;;;;;;;9.20;3.45;;;10.00;99.90;;;;;;5091995;28;20051;-65
2022/11/06 07:37:11;;;;;;;11.52;3.75;;;10.00;99.90;;;;;;5093059;28;20047;-65
2022/11/06 07:39:36;;;;;;;10.07;3.42;;;10.00;99.90;;;;;;5092048;28;20050;-66
2022/11/06 07:42:02;;;;;;;9.45;3.72;;;10.00;99.90;;;;;;5090684;28;20073;-65
2022/11/06 07:44:27;;;;;;;9.73;3.33;;;10.00;99.90;;;;;;5092082;28;20373;-65
2022/11/06 07:46:53;;;;;;;9.35;3.00;;;10.10;99.90;;;;;;5092313;28;20072;-65
2022/11/06 07:49:18;;;;;;;8.90;3.00;;;10.10;99.90;;;;;;5092735;28;20035;-66
2022/11/06 07:51:44;;;;;;;7.70;2.83;;;10.10;99.90;;;;;;5090581;28;20243;-66
2022/11/06 07:54:10;;;;;;;8.82;2.90;;;10.10;99.90;;;;;;5091446;28;20105;-66
2022/11/06 07:56:36;;;;;;;10.07;3.50;;;10.20;99.90;;;;;;5089760;28;20047;-65
2022/11/06 07:59:02;;;;;;;8.05;3.13;;;10.20;99.90;;;;;;5090849;28;20092;-65
2022/11/06 08:01:28;;;;;;;10.05;3.22;;;10.20;99.90;;;;;;5090718;28;20097;-65
2022/11/06 08:03:53;;;;;;;9.65;3.13;;;10.20;99.90;;;;;;5090774;28;20075;-65
2022/11/06 08:06:19;;;;;;;10.10;3.22;;;10.20;99.90;;;;;;5089670;28;20040;-66
2022/11/06 08:08:45;;;;;;;7.65;3.00;;;10.20;99.90;;;;;;5090433;28;20038;-64
2022/11/06 08:11:11;;;;;;;9.35;3.65;;;10.20;99.90;;;;;;5090094;28;20060;-65
2022/11/06 08:13:37;;;;;;;8.38;3.22;;;10.30;99.90;;;;;;5089257;28;20450;-66
2022/11/06 08:16:08;;;;;;;7.60;3.10;;;10.30;99.90;;;;;;5090906;28;20036;-66
2022/11/06 08:18:34;;;;;;;8.50;2.90;;;10.30;99.90;;;;;;5090251;28;20438;-66
2022/11/06 08:20:59;;;;;;;10.25;2.97;;;10.30;99.90;;;;;;5090468;28;20043;-65
2022/11/06 08:23:25;;;;;;;8.77;3.60;;;10.40;99.90;;;;;;5090509;28;20082;-65
2022/11/06 08:26:00;;;;;;;8.35;3.40;;;10.40;99.90;;;;;;5089223;28;20454;-66
2022/11/06 08:28:26;;;;;;;7.78;2.92;;;10.40;99.90;;;;;;5091114;28;20051;-65
2022/11/06 08:30:52;;;;;;;7.30;3.03;;;10.40;99.90;;;;;;5090031;28;20668;-66
2022/11/06 08:33:19;;;;;;;7.82;3.05;;;10.40;99.90;;;;;;5090480;28;20024;-65
2022/11/06 08:35:44;;;;;;;8.57;3.05;;;10.40;99.90;;;;;;5090081;28;20517;-66
2022/11/06 08:38:10;;;;;;;6.85;3.50;;;10.50;99.90;;;;;;5090419;28;20151;-66
2022/11/06 08:40:37;;;;;;;8.57;3.00;;;10.50;99.90;;;;;;5088744;28;20054;-65
2022/11/06 08:43:05;;;;;;;8.05;2.95;;;10.50;99.90;;;;;;5090382;28;20036;-66
2022/11/06 08:45:31;;;;;;;7.60;2.80;;;10.50;99.90;;;;;;5087946;28;20123;-65
2022/11/06 08:48:01;;;;;;;10.02;3.13;;;10.60;99.90;;;;;;5090386;28;20119;-65
2022/11/06 08:50:28;;;;;;;9.38;3.20;;;10.60;99.90;;;;;;5089930;28;20052;-65
2022/11/06 08:53:05;;;;;;;9.27;3.05;;;10.60;99.90;;;;;;5090451;28;20126;-64
2022/11/06 08:55:32;;;;;;;8.45;2.78;;;10.60;99.90;;;;;;5090263;28;20047;-65
2022/11/06 08:57:58;;;;;;;10.05;3.63;;;10.70;99.90;;;;;;5090560;28;20036;-65
2022/11/06 09:00:24;;;;;;;8.65;3.45;;;10.80;99.90;;;;;;5089403;28;20432;-65
2022/11/06 09:02:49;;;;;;;9.05;3.03;;;10.80;99.90;;;;;;5090329;28;20071;-65
2022/11/06 09:05:15;;;;;;;10.20;3.00;;;10.90;99.90;;;;;;5089413;28;20340;-65
2022/11/06 09:07:40;;;;;;;8.75;3.00;;;11.00;99.90;;;;;;5090069;28;20024;-65
2022/11/06 09:10:06;;;;;;;10.85;3.42;;;11.00;99.90;;;;;;5090079;28;20040;-65
2022/11/06 09:12:32;;;;;;;9.57;2.88;;;11.10;99.90;;;;;;5089429;28;20050;-66
2022/11/06 09:14:57;;;;;;;9.25;3.13;;;11.20;99.90;;;;;;5079277;28;20036;-64
2022/11/06 09:17:23;;;;;;;10.45;4.30;;;11.30;99.90;;;;;;5087064;28;20048;-64
2022/11/06 09:19:50;;;;;;;8.70;3.67;;;11.40;99.90;;;;;;5088201;28;20376;-68
2022/11/06 09:22:16;;;;;;;8.18;3.03;;;11.40;99.90;;;;;;5071371;28;20032;-65
2022/11/06 09:24:41;;;;;;;8.70;2.60;;;11.40;99.90;;;;;;5089941;28;20423;-66
2022/11/06 09:27:07;;;;;;;8.88;3.13;;;11.40;99.90;;;;;;5090269;28;20032;-68
2022/11/06 09:29:33;;;;;;;8.68;3.05;;;11.30;99.90;;;;;;5089914;28;20421;-65
2022/11/06 09:31:58;;;;;;;8.68;3.50;;;11.40;99.90;;;;;;5089879;28;20453;-65
2022/11/06 09:34:24;;;;;;;8.38;2.65;;;11.30;99.90;;;;;;5089723;28;20409;-65
2022/11/06 09:36:49;;;;;;;7.38;2.72;;;11.40;99.90;;;;;;5089809;28;20303;-65
2022/11/06 09:39:15;;;;;;;8.38;2.72;;;11.40;99.90;;;;;;5089670;28;20044;-65
2022/11/06 09:41:44;;;;;;;10.48;3.10;;;11.50;99.90;;;;;;5090252;28;20039;-65
2022/11/06 09:44:25;;;;;;;8.57;2.92;;;11.50;99.90;;;;;;5090007;28;20115;-65
2022/11/06 09:46:52;;;;;;;6.38;2.33;;;11.50;99.90;;;;;;5090076;28;20454;-65
2022/11/06 09:49:41;;;;;;;9.32;2.90;;;11.60;99.90;;;;;;5090122;28;20047;-66
2022/11/06 09:52:19;;;;;;;7.50;2.70;;;11.60;99.90;;;;;;5090127;28;20043;-65
2022/11/06 09:54:56;;;;;;;8.38;3.03;;;11.60;99.90;;;;;;5090306;28;20481;-66
2022/11/06 09:57:24;;;;;;;6.10;2.42;;;11.60;99.90;;;;;;5081848;28;20127;-67
2022/11/06 09:59:50;;;;;;;8.95;2.50;;;11.60;99.90;;;;;;5089515;28;20066;-66
2022/11/06 10:02:35;;;;;;;7.90;2.80;;;11.60;99.90;;;;;;5089175;28;20418;-65
2022/11/06 10:05:00;;;;;;;;;;;11.60;99.90;;;;;;5090764;28;20080;-65
2022/11/06 10:07:35;;;;;;;7.72;2.53;;;11.60;99.90;;;;;;5089502;28;19989;-64
2022/11/06 10:10:04;;;;;;;8.63;3.35;;;11.50;99.90;;;;;;5088974;28;20051;-65
2022/11/06 10:12:52;;;;;;;7.03;2.60;;;11.60;99.90;;;;;;5089429;28;20150;-65
2022/11/06 10:15:34;;;;;;;7.30;2.83;;;11.60;99.90;;;;;;5089624;28;20031;-66
2022/11/06 10:18:23;;;;;;;5.93;2.53;;;11.60;99.90;;;;;;5087967;28;20039;-65
2022/11/06 10:20:52;;;;;;;7.07;2.53;;;11.70;99.90;;;;;;5088203;28;20028;-66
2022/11/06 10:23:33;;;;;;;5.93;2.50;;;11.80;99.90;;;;;;5088884;28;20028;-66
2022/11/06 10:26:08;;;;;;;8.18;2.30;;;11.80;99.90;;;;;;5078332;28;20657;-65
2022/11/06 10:29:01;;;;;;;8.20;2.45;;;11.90;99.90;;;;;;5089462;28;20064;-65
2022/11/06 10:31:45;;;;;;;6.30;2.00;;;11.90;99.90;;;;;;5089408;28;20036;-65
2022/11/06 10:34:23;;;;;;;5.82;2.20;;;11.90;99.90;;;;;;5089504;28;20052;-65
2022/11/06 10:37:17;;;;;;;9.38;2.63;;;12.00;99.90;;;;;;5077610;28;20331;-65
2022/11/06 10:39:45;;;;;;;8.00;2.67;;;12.00;99.90;;;;;;5088294;28;20044;-66
2022/11/06 10:42:20;;;;;;;7.93;2.30;;;12.00;99.90;;;;;;5086650;28;20153;-65
2022/11/06 10:44:52;;;;;;;6.90;2.40;;;12.10;99.90;;;;;;5088782;28;20032;-65
2022/11/06 10:47:20;;;;;;;5.47;2.45;;;12.10;99.90;;;;;;5088136;28;20047;-65
2022/11/06 10:49:52;;;;;;;8.35;2.30;;;12.10;99.90;;;;;;5088911;28;20174;-65
2022/11/06 10:52:37;;;;;;;7.03;2.38;;;12.20;99.90;;;;;;5075809;28;20429;-67
2022/11/06 10:55:26;;;;;;;5.70;2.05;;;12.20;99.90;;;;;;5073712;28;20098;-65
2022/11/06 10:58:00;;;;;;;7.60;2.65;;;12.20;99.90;;;;;;5083124;28;20682;-66
2022/11/06 11:00:26;;;;;;;5.97;2.33;;;12.20;99.90;;;;;;5084987;28;20064;-65
2022/11/06 11:02:58;;;;;;;8.05;2.25;;;12.20;99.90;;;;;;5081526;28;20113;-66
2022/11/06 11:05:25;;;;;;;7.32;2.30;;;12.20;99.90;;;;;;5088749;28;20475;-67
2022/11/06 11:07:53;;;;;;;8.70;2.80;;;12.20;99.90;;;;;;5087240;28;20460;-67
2022/11/06 11:10:22;;;;;;;7.75;2.35;;;12.10;99.90;;;;;;5087285;28;20032;-65
2022/11/06 11:12:49;;;;;;;7.68;2.50;;;12.10;99.90;;;;;;5088574;28;20024;-65
2022/11/06 11:15:18;;;;;;;10.85;2.53;;;12.20;99.90;;;;;;5087832;28;20036;-66
2022/11/06 11:18:15;;;;;;;8.35;2.30;;;12.20;99.90;;;;;;5087955;28;20114;-69
2022/11/06 11:20:50;;;;;;;9.35;2.35;;;12.20;99.90;;;;;;5086306;28;20105;-68
2022/11/06 11:23:18;;;;;;;11.27;2.60;;;12.10;99.90;;;;;;5088147;28;20063;-65
2022/11/06 11:25:50;;;;;;;5.78;3.00;;;12.10;99.90;;;;;;5088258;28;20040;-66
2022/11/06 11:28:30;;;;;;;7.95;2.60;;;12.10;99.90;;;;;;5089145;28;20501;-66
2022/11/06 11:31:03;;;;;;;5.68;2.33;;;12.10;99.90;;;;;;5088549;28;20047;-65
2022/11/06 11:33:29;;;;;;;6.50;2.42;;;12.10;99.90;;;;;;5092920;28;20036;-65
2022/11/06 11:35:55;;;;;;;8.68;2.58;;;12.10;99.90;;;;;;5092815;28;20419;-65
2022/11/06 11:38:21;;;;;;;7.35;2.63;;;12.10;99.90;;;;;;5092556;28;20449;-65
2022/11/06 11:40:47;;;;;;;7.35;2.53;;;12.10;99.90;;;;;;5092313;28;20047;-65
2022/11/06 11:43:26;;;;;;;5.38;2.35;;;12.10;99.90;;;;;;5092319;28;20067;-66
2022/11/06 11:46:07;;;;;;;8.25;3.45;;;12.10;99.90;;;;;;5092608;28;20055;-65
2022/11/06 11:48:47;;;;;;;5.75;2.30;;;12.10;99.90;;;;;;5092185;28;20350;-66
2022/11/06 11:51:35;;;;;;;4.20;1.98;;;12.20;99.90;;;;;;5091346;28;20048;-65
2022/11/06 11:54:03;;;;;;;6.93;2.67;;;12.20;99.90;;;;;;5089635;28;20131;-65
2022/11/06 11:56:29;;;;;;;8.82;2.38;;;12.20;99.90;;;;;;5092653;28;20076;-65
2022/11/06 11:58:57;;;;;;;8.45;2.47;;;12.30;99.90;;;;;;5092324;28;20057;-65
2022/11/06 12:01:37;;;;;;;7.75;2.42;;;12.30;99.90;;;;;;5091546;28;20370;-65
2022/11/06 12:04:18;;;;;;;7.82;2.38;;;12.30;99.90;;;;;;5091654;28;20054;-65
2022/11/06 12:07:02;;;;;;;6.43;2.28;;;12.30;99.90;;;;;;5092227;28;20040;-66
2022/11/06 12:09:32;;;;;;;5.97;2.42;;;12.40;99.90;;;;;;5080290;28;20043;-66
2022/11/06 12:12:00;;;;;;;6.13;2.38;;;12.40;99.90;;;;;;5091907;28;20104;-65
2022/11/06 12:14:29;;;;;;;7.45;2.15;;;12.50;99.90;;;;;;5091480;28;20032;-66
2022/11/06 12:17:25;;;;;;;9.25;2.72;;;12.50;99.90;;;;;;5091655;28;20424;-66
2022/11/06 12:19:54;;;;;;;7.47;2.40;;;12.60;99.90;;;;;;5072580;28;20052;-65
2022/11/06 12:22:39;;;;;;;5.68;1.70;;;12.60;99.90;;;;;;5090335;28;20063;-64
2022/11/06 12:25:24;;;;;;;6.00;2.33;;;12.60;99.90;;;;;;5091978;28;20054;-66
2022/11/06 12:27:54;;;;;;;10.35;2.38;;;12.60;99.90;;;;;;5091679;28;20036;-67
2022/11/06 12:30:20;;;;;;;6.78;2.55;;;12.50;99.90;;;;;;5091208;28;20040;-65
2022/11/06 12:33:19;;;;;;;6.05;1.90;;;12.50;99.90;;;;;;5089087;28;20115;-65
2022/11/06 12:35:49;;;;;;;7.93;2.47;;;12.50;99.90;;;;;;5090927;28;20361;-66
2022/11/06 12:38:39;;;;;;;11.00;2.80;;;12.50;99.90;;;;;;5091427;28;20032;-66
2022/11/06 12:41:22;;;;;;;5.97;2.10;;;12.50;99.90;;;;;;5091217;28;20092;-66
2022/11/06 12:43:49;;;;;;;5.30;2.20;;;12.50;99.90;;;;;;5085661;28;20101;-66
2022/11/06 12:46:47;;;;;;;6.55;2.05;;;12.40;99.90;;;;;;5090644;28;20032;-66
2022/11/06 12:49:40;;;;;;;9.98;2.80;;;12.40;99.90;;;;;;5088022;28;20075;-66
2022/11/06 12:52:41;;;;;;;47.35;6.18;;;12.40;99.90;;;;;;5091050;28;20093;-66
2022/11/06 12:55:19;;;;;;;20.75;3.63;;;12.50;99.90;;;;;;5087512;28;20048;-64
2022/11/06 12:58:11;;;;;;;29.27;3.65;;;12.50;99.90;;;;;;5082001;28;20068;-66
2022/11/06 13:00:46;;;;;;;10.77;2.75;;;12.50;99.90;;;;;;5090188;28;20040;-66
2022/11/06 13:03:34;;;;;;;10.65;2.45;;;12.50;99.90;;;;;;5090753;28;20515;-65
2022/11/06 13:06:11;;;;;;;6.97;2.10;;;12.50;99.90;;;;;;5078702;28;20758;-66
2022/11/06 13:08:45;;;;;;;6.30;2.05;;;12.50;99.90;;;;;;5089394;28;20040;-67
2022/11/06 13:11:17;;;;;;;5.82;2.10;;;12.60;99.90;;;;;;5078489;28;20024;-65
2022/11/06 13:14:09;;;;;;;7.07;2.00;;;12.50;99.90;;;;;;5090273;28;20036;-65
2022/11/06 13:17:02;;;;;;;5.75;1.90;;;12.60;99.90;;;;;;5090268;28;20144;-67
2022/11/06 13:19:35;;;;;;;7.65;2.35;;;12.60;99.90;;;;;;5084524;28;20078;-66